Time;durP1;ratioP1;P1;durP2;ratioP2;P2;SDS_P1;SDS_P2;PMS_P1;PMS_P2;Temp;Humidity;BMP_temperature;BMP_pressure;BME280_temperature;BME280_humidity;BME280_pressure;Samples;Min_cycle;Max_cycle;Signal;HPM_P1;HPM_P2
2023/10/29 00:02:29;;;;;;;;;;;;;;;9.57;100.00;99033.88;5033345;28;19932;-77
2023/10/29 00:05:15;;;;;;;;;;;;;;;9.58;100.00;99027.66;5053824;28;20030;-79
2023/10/29 00:08:01;;;;;;;;;;;;;;;9.59;100.00;99023.22;5056016;28;19935;-78
2023/10/29 00:10:46;;;;;;;;;;;;;;;9.59;100.00;99016.13;5038453;28;19979;-78
2023/10/29 00:13:32;;;;;;;;;;;;;;;9.60;100.00;99001.97;5024313;28;19924;-78
2023/10/29 00:16:18;;;;;;;;;;;;;;;9.61;100.00;98984.31;5053030;28;19932;-77
2023/10/29 00:19:03;;;;;;;;;;;;;;;9.62;100.00;98980.72;5057276;28;20130;-77
2023/10/29 00:21:52;;;;;;;;;;;;;;;9.64;100.00;98973.53;5054243;28;20054;-79
2023/10/29 00:24:37;;;;;;;;;;;;;;;9.65;100.00;98960.22;5054935;28;19940;-79
2023/10/29 00:27:23;;;;;;;;;;;;;;;9.68;100.00;98958.28;5038866;28;19975;-78
2023/10/29 00:30:09;;;;;;;;;;;;;;;9.69;100.00;98952.06;5055356;28;20386;-78
2023/10/29 00:32:55;;;;;;;;;;;;;;;9.70;100.00;98957.22;5055506;28;21925;-76
2023/10/29 00:35:41;;;;;;;;;;;;;;;9.72;100.00;98947.41;5037248;28;20342;-77
2023/10/29 00:38:27;;;;;;;;;;;;;;;9.75;100.00;98933.13;5059472;28;20023;-78
2023/10/29 00:41:15;;;;;;;;;;;;;;;9.77;100.00;98920.66;5054420;28;19928;-77
2023/10/29 00:44:04;;;;;;;;;;;;;;;9.81;100.00;98915.97;5035570;28;20589;-78
2023/10/29 00:46:50;;;;;;;;;;;;;;;9.84;100.00;98913.97;5033977;28;20371;-78
2023/10/29 00:49:35;;;;;;;;;;;;;;;9.86;100.00;98908.56;5034005;28;20457;-75
2023/10/29 00:52:24;;;;;;;;;;;;;;;9.88;100.00;98902.22;5035667;28;19983;-77
2023/10/29 00:55:10;;;;;;;;;;;;;;;9.90;100.00;98884.44;5020825;28;20388;-78
2023/10/29 00:57:56;;;;;;;;;;;;;;;9.95;100.00;98875.31;5025109;28;20082;-78
2023/10/29 01:00:44;;;;;;;;;;;;;;;9.96;100.00;98882.31;5026612;28;20634;-76
2023/10/29 01:03:29;;;;;;;;;;;;;;;9.98;100.00;98891.78;5029856;28;19978;-76
2023/10/29 01:06:15;;;;;;;;;;;;;;;10.02;100.00;98885.31;5021499;28;19933;-76
2023/10/29 01:09:01;;;;;;;;;;;;;;;10.05;100.00;98866.59;5034430;28;19936;-77
2023/10/29 01:11:46;;;;;;;;;;;;;;;10.07;100.00;98858.53;5039770;28;20355;-77
2023/10/29 01:14:32;;;;;;;;;;;;;;;10.12;100.00;98855.53;5033397;28;19933;-76
2023/10/29 01:17:19;;;;;;;;;;;;;;;10.14;100.00;98851.81;5032556;28;19932;-77
2023/10/29 01:20:08;;;;;;;;;;;;;;;10.18;100.00;98845.34;5037269;28;19929;-77
2023/10/29 01:22:54;;;;;;;;;;;;;;;10.24;100.00;98835.28;5019963;28;19931;-78
2023/10/29 01:25:41;;;;;;;;;;;;;;;10.26;100.00;98834.19;5032281;28;19936;-77
2023/10/29 01:28:31;;;;;;;;;;;;;;;10.28;100.00;98819.03;5035790;28;19982;-78
2023/10/29 01:31:17;;;;;;;;;;;;;;;10.31;100.00;98825.91;5035412;28;20139;-78
2023/10/29 01:34:05;;;;;;;;;;;;;;;10.34;100.00;98820.38;5035184;28;20037;-76
2023/10/29 01:36:51;;;;;;;;;;;;;;;10.37;100.00;98817.50;5034095;28;20387;-76
2023/10/29 01:39:36;;;;;;;;;;;;;;;10.39;100.00;98815.56;5037077;28;19929;-77
2023/10/29 01:42:22;;;;;;;;;;;;;;;10.41;100.00;98808.34;5038132;28;20300;-77
2023/10/29 01:45:08;;;;;;;;;;;;;;;10.43;100.00;98809.13;5038022;28;20319;-78
2023/10/29 01:47:53;;;;;;;;;;;;;;;10.44;100.00;98797.59;5037112;28;20023;-76
2023/10/29 01:50:39;;;;;;;;;;;;;;;10.46;100.00;98786.84;5038132;28;19939;-77
2023/10/29 01:53:27;;;;;;;;;;;;;;;10.49;100.00;98791.94;5037372;28;19936;-77
2023/10/29 01:56:13;;;;;;;;;;;;;;;10.51;100.00;98789.16;5055775;28;20319;-78
2023/10/29 01:58:59;;;;;;;;;;;;;;;10.53;100.00;98792.53;5060730;28;19932;-78
2023/10/29 02:01:45;;;;;;;;;;;;;;;10.57;100.00;98783.41;5042979;28;19936;-78
2023/10/29 02:04:32;;;;;;;;;;;;;;;10.60;100.00;98775.22;5037316;28;19928;-76
2023/10/29 02:07:17;;;;;;;;;;;;;;;10.63;100.00;98767.03;5054039;28;20743;-76
2023/10/29 02:10:03;;;;;;;;;;;;;;;10.64;100.00;98766.09;5056278;28;19925;-77
2023/10/29 02:12:52;;;;;;;;;;;;;;;10.65;100.00;98759.81;5040780;28;20502;-77
2023/10/29 02:15:55;;;;;;;;;;;;;;;10.68;100.00;98764.84;5021669;28;19928;-78
2023/10/29 02:18:40;;;;;;;;;;;;;;;10.68;100.00;98756.91;5038666;28;20019;-77
2023/10/29 02:21:26;;;;;;;;;;;;;;;10.72;100.00;98746.94;5035230;28;19929;-77
2023/10/29 02:24:12;;;;;;;;;;;;;;;10.75;100.00;98748.50;5032777;28;20255;-77
2023/10/29 02:26:57;;;;;;;;;;;;;;;10.79;100.00;98742.00;5034209;28;19935;-77
2023/10/29 02:29:43;;;;;;;;;;;;;;;10.83;100.00;98735.47;5033564;28;19964;-77
2023/10/29 02:32:29;;;;;;;;;;;;;;;10.84;100.00;98734.53;5022250;28;20379;-78
2023/10/29 02:35:14;;;;;;;;;;;;;;;10.87;100.00;98731.63;5036072;28;20465;-76
2023/10/29 02:38:00;;;;;;;;;;;;;;;10.90;100.00;98733.19;5036016;28;19925;-77
2023/10/29 02:40:46;;;;;;;;;;;;;;;10.91;100.00;98727.78;5034018;28;19935;-78
2023/10/29 02:43:32;;;;;;;;;;;;;;;10.91;100.00;98725.13;5038376;28;20429;-78
2023/10/29 02:46:18;;;;;;;;;;;;;;;10.91;100.00;98722.50;5034062;28;19940;-78
2023/10/29 02:49:04;;;;;;;;;;;;;;;10.93;100.00;98725.84;5019798;28;20653;-77
2023/10/29 02:51:52;;;;;;;;;;;;;;;10.93;100.00;98717.91;5012023;28;20188;-76
2023/10/29 02:54:38;;;;;;;;;;;;;;;10.95;100.00;98718.63;5034848;28;19944;-79
2023/10/29 02:57:24;;;;;;;;;;;;;;;10.94;100.00;98721.38;5034001;28;19932;-77
2023/10/29 03:00:09;;;;;;;;;;;;;;;10.93;100.00;98717.91;5036041;28;19975;-77
2023/10/29 03:02:55;;;;;;;;;;;;;;;10.92;100.00;98696.84;5033359;28;19935;-78
2023/10/29 03:05:40;;;;;;;;;;;;;;;10.94;100.00;98697.53;5036979;28;19940;-78
2023/10/29 03:08:26;;;;;;;;;;;;;;;10.95;100.00;98701.91;5031320;28;19951;-77
2023/10/29 03:11:12;;;;;;;;;;;;;;;10.95;100.00;98700.06;5020544;28;19972;-77
2023/10/29 03:13:59;;;;;;;;;;;;;;;10.95;100.00;98689.50;5029921;28;19936;-78
2023/10/29 03:16:52;;;;;;;;;;;;;;;10.94;100.00;98690.47;5030006;28;20515;-79
2023/10/29 03:19:37;;;;;;;;;;;;;;;10.93;100.00;98685.28;5030805;28;20654;-78
2023/10/29 03:22:23;;;;;;;;;;;;;;;10.93;100.00;98691.44;5030826;28;20042;-77
2023/10/29 03:25:09;;;;;;;;;;;;;;;10.90;100.00;98677.59;5012804;28;19925;-78
2023/10/29 03:27:56;;;;;;;;;;;;;;;10.89;100.00;98683.88;5018163;28;20654;-77
2023/10/29 03:30:41;;;;;;;;;;;;;;;10.86;100.00;98679.66;5034802;28;19994;-77
2023/10/29 03:33:27;;;;;;;;;;;;;;;10.84;100.00;98676.31;5032408;28;19950;-78
2023/10/29 03:36:13;;;;;;;;;;;;;;;10.82;100.00;98673.78;5036253;28;20327;-78
2023/10/29 03:38:58;;;;;;;;;;;;;;;10.84;100.00;98676.31;5011273;28;20425;-77
2023/10/29 03:42:03;;;;;;;;;;;;;;;10.83;100.00;98683.41;5034919;28;20072;-78
2023/10/29 03:44:48;;;;;;;;;;;;;;;10.84;100.00;98685.06;5031053;28;19920;-78
2023/10/29 03:47:34;;;;;;;;;;;;;;;10.85;100.00;98694.69;5030571;28;19936;-78
2023/10/29 03:50:20;;;;;;;;;;;;;;;10.88;100.00;98700.72;5032119;28;19929;-78
2023/10/29 03:53:05;;;;;;;;;;;;;;;10.88;100.00;98701.53;5021371;28;19944;-77
2023/10/29 03:55:51;;;;;;;;;;;;;;;10.90;100.00;98696.97;5018601;28;20430;-77
2023/10/29 03:58:40;;;;;;;;;;;;;;;10.92;100.00;98704.78;5034820;28;20061;-78
2023/10/29 04:01:26;;;;;;;;;;;;;;;10.94;100.00;98700.19;5035012;28;19935;-77
2023/10/29 04:04:35;;;;;;;;;;;;;;;10.94;100.00;98711.63;5018504;28;19936;-78
2023/10/29 04:07:21;;;;;;;;;;;;;;;10.96;100.00;98716.81;5036200;28;19939;-77
2023/10/29 04:10:07;;;;;;;;;;;;;;;10.96;100.00;98717.63;5020508;28;19932;-78
2023/10/29 04:12:53;;;;;;;;;;;;;;;10.96;100.00;98717.63;5021152;28;19937;-76
2023/10/29 04:15:41;;;;;;;;;;;;;;;10.94;100.00;98709.00;5011263;28;20315;-77
2023/10/29 04:18:31;;;;;;;;;;;;;;;10.89;100.00;98729.69;5013181;28;20057;-75
2023/10/29 04:21:16;;;;;;;;;;;;;;;10.80;100.00;98723.38;5031367;28;19933;-76
2023/10/29 04:24:02;;;;;;;;;;;;;;;10.69;100.00;98724.19;5019611;28;20387;-76
2023/10/29 04:26:48;;;;;;;;;;;;;;;10.58;100.00;98713.63;5029750;28;19936;-77
2023/10/29 04:29:33;;;;;;;;;;;;;;;10.50;100.00;98713.41;5019890;28;20411;-78
2023/10/29 04:32:19;;;;;;;;;;;;;;;10.39;100.00;98720.34;5033983;28;19947;-77
2023/10/29 04:35:05;;;;;;;;;;;;;;;10.31;100.00;98712.19;5031908;28;19929;-76
2023/10/29 04:37:50;;;;;;;;;;;;;;;10.24;100.00;98718.91;5023586;28;19933;-77
2023/10/29 04:40:36;;;;;;;;;;;;;;;10.18;100.00;98717.56;5041428;28;20483;-78
2023/10/29 04:43:22;;;;;;;;;;;;;;;10.11;100.00;98711.06;5038437;28;20405;-78
2023/10/29 04:46:12;;;;;;;;;;;;;;;10.04;100.00;98718.66;5020122;28;20441;-75
2023/10/29 04:48:58;;;;;;;;;;;;;;;9.98;100.00;98722.59;5026859;28;20015;-77
2023/10/29 04:51:44;;;;;;;;;;;;;;;9.94;100.00;98715.03;5024478;28;19979;-78
2023/10/29 04:54:30;;;;;;;;;;;;;;;9.91;100.00;98716.09;5038957;28;21495;-78
2023/10/29 04:57:20;;;;;;;;;;;;;;;9.85;100.00;98712.13;5056408;28;19928;-77
2023/10/29 05:00:21;;;;;;;;;;;;;;;9.80;100.00;98714.28;5012843;28;19929;-77
2023/10/29 05:03:07;;;;;;;;;;;;;;;9.80;100.00;98714.28;4996727;28;20262;-78
2023/10/29 05:05:53;;;;;;;;;;;;;;;9.82;100.00;98711.53;5013464;28;19925;-78
2023/10/29 05:08:38;;;;;;;;;;;;;;;9.83;100.00;98700.00;5010949;28;19933;-78
2023/10/29 05:11:24;;;;;;;;;;;;;;;9.85;100.00;98712.13;5000609;28;20015;-76
2023/10/29 05:14:10;;;;;;;;;;;;;;;9.87;100.00;98706.72;4987314;28;19936;-77
2023/10/29 05:16:56;;;;;;;;;;;;;;;9.88;100.00;98697.84;5012506;28;19933;-75
2023/10/29 05:19:49;;;;;;;;;;;;;;;9.92;100.00;98688.72;4985944;28;19935;-77
2023/10/29 05:22:34;;;;;;;;;;;;;;;9.92;100.00;98686.91;4997183;28;19928;-78
2023/10/29 05:25:20;;;;;;;;;;;;;;;9.94;100.00;98686.81;5010161;28;19943;-76
2023/10/29 05:28:06;;;;;;;;;;;;;;;9.97;100.00;98689.19;5009443;28;19940;-78
2023/10/29 05:30:51;;;;;;;;;;;;;;;10.01;100.00;98673.94;5025916;28;19943;-75
2023/10/29 05:33:37;;;;;;;;;;;;;;;10.03;100.00;98662.28;5042191;28;19924;-78
2023/10/29 05:36:23;;;;;;;;;;;;;;;10.09;100.00;98691.84;5055647;28;19929;-75
2023/10/29 05:39:09;;;;;;;;;;;;;;;10.12;100.00;98684.53;5052723;28;19932;-76
2023/10/29 05:41:58;;;;;;;;;;;;;;;10.19;100.00;98692.84;5036199;28;20058;-78
2023/10/29 05:44:44;;;;;;;;;;;;;;;10.24;100.00;98688.00;5038117;28;20406;-77
2023/10/29 05:47:30;;;;;;;;;;;;;;;10.26;100.00;98698.47;5037182;28;19932;-78
2023/10/29 05:50:15;;;;;;;;;;;;;;;10.26;100.00;98701.97;5059991;28;19928;-78
2023/10/29 05:53:03;;;;;;;;;;;;;;;10.28;100.00;98678.88;5055747;28;20319;-79
2023/10/29 05:55:54;;;;;;;;;;;;;;;10.30;100.00;98690.16;5043936;28;19958;-77
2023/10/29 05:58:40;;;;;;;;;;;;;;;10.31;100.00;98701.59;5056209;28;19935;-79
2023/10/29 06:01:26;;;;;;;;;;;;;;;10.30;100.00;98702.56;5058358;28;19939;-77
2023/10/29 06:04:11;;;;;;;;;;;;;;;10.30;100.00;98692.00;5056055;28;20025;-76
2023/10/29 06:06:57;;;;;;;;;;;;;;;10.29;100.00;98687.63;5040266;28;19936;-77
2023/10/29 06:16:34;;;;;;;;;;;;;;;10.01;100.00;98705.66;5053543;28;19954;-77
2023/10/29 06:19:20;;;;;;;;;;;;;;;9.92;100.00;98718.63;5055603;28;19960;-78
2023/10/29 06:22:06;;;;;;;;;;;;;;;9.86;100.00;98729.66;5055998;28;19951;-79
2023/10/29 06:24:52;;;;;;;;;;;;;;;9.83;100.00;98734.34;5055724;28;19932;-78
2023/10/29 06:27:37;;;;;;;;;;;;;;;9.81;100.00;98742.38;5040813;28;19928;-78
2023/10/29 06:30:23;;;;;;;;;;;;;;;9.80;100.00;98748.63;5053726;28;19998;-77
2023/10/29 06:33:09;;;;;;;;;;;;;;;9.80;100.00;98746.00;5054402;28;19935;-81
2023/10/29 06:35:57;;;;;;;;;;;;;;;9.80;100.00;98753.91;5036593;28;19931;-78
2023/10/29 06:38:45;;;;;;;;;;;;;;;9.81;100.00;98758.25;5054686;28;19928;-78
2023/10/29 06:41:31;;;;;;;;;;;;;;;9.86;100.00;98766.66;5053348;28;19932;-77
2023/10/29 06:44:17;;;;;;;;;;;;;;;9.90;100.00;98770.78;5053461;28;20352;-78
2023/10/29 06:47:03;;;;;;;;;;;;;;;9.95;100.00;98782.78;5056396;28;19928;-78
2023/10/29 06:49:50;;;;;;;;;;;;;;;9.93;100.00;98777.63;5053871;28;20441;-77
2023/10/29 06:52:38;;;;;;;;;;;;;;;9.97;100.00;98786.16;5037880;28;19925;-78
2023/10/29 06:55:24;;;;;;;;;;;;;;;10.01;100.00;98787.59;5057926;28;19939;-78
2023/10/29 06:58:10;;;;;;;;;;;;;;;10.06;100.00;98788.09;5011814;28;19929;-78
2023/10/29 07:01:01;;;;;;;;;;;;;;;10.10;100.00;98796.66;5025990;28;20303;-78
2023/10/29 07:03:47;;;;;;;;;;;;;;;10.10;100.00;98800.16;5015924;28;19971;-78
2023/10/29 07:06:33;;;;;;;;;;;;;;;10.11;100.00;98801.81;5024544;28;19929;-77
2023/10/29 07:09:18;;;;;;;;;;;;;;;10.17;100.00;98809.28;5012014;28;19929;-77
2023/10/29 07:12:04;;;;;;;;;;;;;;;10.22;100.00;98813.38;5013209;28;19936;-78
2023/10/29 07:14:50;;;;;;;;;;;;;;;10.24;100.00;98816.75;5012641;28;19929;-77
2023/10/29 07:17:35;;;;;;;;;;;;;;;10.26;100.00;98833.34;5013950;28;19999;-78
2023/10/29 07:20:21;;;;;;;;;;;;;;;10.26;100.00;98836.00;5014598;28;19932;-77
2023/10/29 07:23:07;;;;;;;;;;;;;;;10.28;100.00;98834.06;5012782;28;19930;-78
2023/10/29 07:25:52;;;;;;;;;;;;;;;10.30;100.00;98842.75;5026920;28;20334;-78
2023/10/29 07:28:40;;;;;;;;;;;;;;;10.29;100.00;98852.47;5013151;28;19992;-79
2023/10/29 07:31:25;;;;;;;;;;;;;;;10.27;100.00;98850.91;5013993;28;19952;-77
2023/10/29 07:34:11;;;;;;;;;;;;;;;10.25;100.00;98844.88;5014693;28;19941;-78
2023/10/29 07:36:59;;;;;;;;;;;;;;;10.22;100.00;98860.97;5013267;28;21653;-78
2023/10/29 07:39:44;;;;;;;;;;;;;;;10.23;100.00;98852.94;5016444;28;19955;-78
2023/10/29 07:42:30;;;;;;;;;;;;;;;10.25;100.00;98860.75;5026096;28;21332;-77
2023/10/29 07:45:16;;;;;;;;;;;;;;;10.28;100.00;98877.22;5010481;28;20018;-76
2023/10/29 07:48:02;;;;;;;;;;;;;;;10.34;100.00;98886.50;5015396;28;20566;-80
2023/10/29 07:50:52;;;;;;;;;;;;;;;10.42;100.00;98881.50;5012836;28;20035;-78
2023/10/29 07:53:38;;;;;;;;;;;;;;;10.51;100.00;98901.13;5014543;28;20418;-78
2023/10/29 07:56:24;;;;;;;;;;;;;;;10.58;100.00;98904.16;5019449;28;19936;-83
2023/10/29 07:59:10;;;;;;;;;;;;;;;10.61;100.00;98911.84;5049195;28;19920;-78
2023/10/29 08:01:58;;;;;;;;;;;;;;;10.63;100.00;98915.25;5047315;28;20014;-79
2023/10/29 08:04:43;;;;;;;;;;;;;;;10.65;100.00;98928.31;5054165;28;19960;-77
2023/10/29 08:07:32;;;;;;;;;;;;;;;10.66;100.00;98928.22;5052871;28;19932;-78
2023/10/29 08:10:18;;;;;;;;;;;;;;;10.67;100.00;98929.91;5054483;28;19928;-79
2023/10/29 08:13:05;;;;;;;;;;;;;;;10.70;100.00;98940.28;5054052;28;20403;-80
2023/10/29 08:15:51;;;;;;;;;;;;;;;10.80;100.00;98939.56;5053844;28;19936;-79
2023/10/29 08:18:36;;;;;;;;;;;;;;;10.87;100.00;98946.06;5053828;28;19929;-79
2023/10/29 08:21:22;;;;;;;;;;;;;;;10.90;100.00;98937.88;5054724;28;19932;-78
2023/10/29 08:24:11;;;;;;;;;;;;;;;10.91;100.00;98946.66;5052699;28;21667;-79
2023/10/29 08:26:57;;;;;;;;;;;;;;;10.89;100.00;98954.72;5051545;28;20151;-77
2023/10/29 08:29:43;;;;;;;;;;;;;;;10.88;100.00;98957.50;5035130;28;19929;-79
2023/10/29 08:32:32;;;;;;;;;;;;;;;10.86;100.00;98965.56;5053095;28;19933;-79
2023/10/29 08:35:18;;;;;;;;;;;;;;;10.85;100.00;98954.09;5023176;28;19928;-77
2023/10/29 08:38:04;;;;;;;;;;;;;;;10.83;100.00;98963.97;5052686;28;20029;-79
2023/10/29 08:40:52;;;;;;;;;;;;;;;10.78;100.00;98966.13;5036188;28;19929;-77
2023/10/29 08:43:37;;;;;;;;;;;;;;;10.77;100.00;98982.13;5055489;28;19935;-77
2023/10/29 08:46:23;;;;;;;;;;;;;;;10.78;100.00;98989.13;5037945;28;20291;-78
2023/10/29 08:49:13;;;;;;;;;;;;;;;10.80;100.00;99000.44;5052984;28;19928;-78
2023/10/29 08:51:59;;;;;;;;;;;;;;;10.78;100.00;98992.59;5054311;28;21387;-78
2023/10/29 08:54:45;;;;;;;;;;;;;;;10.76;100.00;99007.75;5053345;28;19932;-78
2023/10/29 08:58:03;;;;;;;;;;;;;;;10.81;100.00;99012.69;5050383;28;19928;-78
2023/10/29 09:00:49;;;;;;;;;;;;;;;10.89;100.00;99014.78;5023898;28;20528;-77
2023/10/29 09:03:35;;;;;;;;;;;;;;;10.92;100.00;99011.88;5023954;28;19977;-78
2023/10/29 09:06:21;;;;;;;;;;;;;;;10.94;100.00;99015.25;5015087;28;19925;-79
2023/10/29 09:09:06;;;;;;;;;;;;;;;10.94;100.00;99026.69;5027492;28;20100;-79
2023/10/29 09:11:53;;;;;;;;;;;;;;;10.92;100.00;99017.19;5011459;28;19933;-79
2023/10/29 09:14:39;;;;;;;;;;;;;;;10.90;100.00;99035.81;5023829;28;19929;-78
2023/10/29 09:17:33;;;;;;;;;;;;;;;10.88;100.00;99043.03;5026348;28;19929;-79
2023/10/29 09:20:19;;;;;;;;;;;;;;;10.89;100.00;99043.91;5001373;28;20553;-78
2023/10/29 09:23:05;;;;;;;;;;;;;;;10.90;100.00;99046.41;5015608;28;19929;-80
2023/10/29 09:25:51;;;;;;;;;;;;;;;11.00;100.00;99054.50;5024731;28;19929;-77
2023/10/29 09:28:37;;;;;;;;;;;;;;;11.15;100.00;99076.34;5026864;28;19933;-78
2023/10/29 09:31:23;;;;;;;;;;;;;;;11.27;100.00;99070.09;5037739;28;19928;-79
2023/10/29 09:34:08;;;;;;;;;;;;;;;11.34;100.00;99051.09;5033754;28;19986;-80
2023/10/29 09:36:54;;;;;;;;;;;;;;;11.38;100.00;99063.13;5054171;28;19979;-79
2023/10/29 09:39:40;;;;;;;;;;;;;;;11.38;100.00;99077.22;5049310;28;20272;-76
2023/10/29 09:42:32;;;;;;;;;;;;;;;11.40;100.00;99079.78;5039302;28;20448;-78
2023/10/29 09:45:18;;;;;;;;;;;;;;;11.39;100.00;99084.22;5057126;28;19929;-79
2023/10/29 09:48:06;;;;;;;;;;;;;;;11.39;100.00;99083.38;5037983;28;19925;-78
2023/10/29 09:50:52;;;;;;;;;;;;;;;11.40;100.00;99071.81;5039970;28;20291;-80
2023/10/29 18:45:31;;;;;;;;;;;;;;;9.24;100.00;99136.47;5040410;28;20003;-80
2023/10/29 18:48:17;;;;;;;;;;;;;;;9.27;100.00;99130.16;5052047;28;19936;-75
2023/10/29 18:51:03;;;;;;;;;;;;;;;9.26;100.00;99133.72;5033233;28;20022;-75
2023/10/29 18:53:49;;;;;;;;;;;;;;;9.23;100.00;99134.78;5047621;28;19929;-75
2023/10/29 18:56:34;;;;;;;;;;;;;;;9.20;100.00;99142.03;5051463;28;19943;-76
2023/10/29 18:59:23;;;;;;;;;;;;;;;9.15;100.00;99137.06;5047453;28;19932;-77
2023/10/29 19:02:09;;;;;;;;;;;;;;;9.13;100.00;99146.91;5032344;28;19959;-77
2023/10/29 19:04:55;;;;;;;;;;;;;;;9.10;100.00;99145.31;5049534;28;20364;-75
2023/10/29 19:07:41;;;;;;;;;;;;;;;9.10;100.00;99158.50;5050884;28;19967;-76
2023/10/29 19:10:46;;;;;;;;;;;;;;;9.08;100.00;99156.91;5007670;28;20015;-75
2023/10/29 19:13:34;;;;;;;;;;;;;;;9.06;100.00;99164.09;5009845;28;19933;-76
2023/10/29 19:16:20;;;;;;;;;;;;;;;9.03;100.00;99175.72;4990059;28;19971;-76
2023/10/29 19:19:06;;;;;;;;;;;;;;;9.01;100.00;99160.91;5006250;28;20376;-76
2023/10/29 19:21:54;;;;;;;;;;;;;;;8.97;100.00;99170.81;5007911;28;19935;-75
2023/10/29 19:24:40;;;;;;;;;;;;;;;8.95;100.00;99176.19;4995914;28;20640;-75
2023/10/29 19:27:26;;;;;;;;;;;;;;;8.93;100.00;99170.19;5008387;28;20335;-75
2023/10/29 19:30:11;;;;;;;;;;;;;;;8.93;100.00;99177.28;5004253;28;19959;-77
2023/10/29 19:32:57;;;;;;;;;;;;;;;8.95;100.00;99183.28;4996242;28;19972;-75
2023/10/29 19:35:43;;;;;;;;;;;;;;;8.96;100.00;99191.13;5007027;28;19971;-80
2023/10/29 19:38:28;;;;;;;;;;;;;;;8.98;100.00;99183.06;4983201;28;20423;-76
2023/10/29 19:41:14;;;;;;;;;;;;;;;8.98;100.00;99198.91;5024182;28;19989;-74
2023/10/29 19:44:00;;;;;;;;;;;;;;;8.98;100.00;99196.28;5036190;28;20473;-79
2023/10/29 19:46:48;;;;;;;;;;;;;;;8.98;100.00;99220.03;5035883;28;19937;-76
2023/10/29 19:49:33;;;;;;;;;;;;;;;8.96;100.00;99206.94;5025232;28;20393;-77
2023/10/29 19:52:20;;;;;;;;;;;;;;;8.98;100.00;99230.59;5028454;28;20028;-77
2023/10/29 19:55:07;;;;;;;;;;;;;;;8.99;100.00;99232.28;5013777;28;19936;-79
2023/10/29 19:57:52;;;;;;;;;;;;;;;9.03;100.00;99244.34;5014540;28;19934;-75
2023/10/29 20:00:38;;;;;;;;;;;;;;;9.06;100.00;99264.41;5025491;28;19956;-78
2023/10/29 20:03:23;;;;;;;;;;;;;;;9.09;100.00;99267.72;5025791;28;19929;-76
2023/10/29 20:06:10;;;;;;;;;;;;;;;9.13;100.00;99275.41;5026053;28;19933;-76
2023/10/29 20:08:55;;;;;;;;;;;;;;;9.13;100.00;99280.69;5014785;28;19932;-74
2023/10/29 20:11:41;;;;;;;;;;;;;;;9.12;100.00;99290.44;5022771;28;20220;-78
2023/10/29 20:14:27;;;;;;;;;;;;;;;9.13;100.00;99289.47;5025280;28;19994;-81
2023/10/29 20:17:13;;;;;;;;;;;;;;;9.12;100.00;99287.78;5013611;28;20387;-77
2023/10/29 20:19:59;;;;;;;;;;;;;;;9.12;100.00;99301.00;5023707;28;19929;-76
2023/10/29 20:22:44;;;;;;;;;;;;;;;9.12;100.00;99308.06;5022947;28;20308;-76
2023/10/29 20:25:39;;;;;;;;;;;;;;;9.13;100.00;99317.66;5023331;28;20080;-80
2023/10/29 20:28:44;;;;;;;;;;;;;;;9.15;100.00;99310.50;5016047;28;19929;-77
2023/10/29 20:31:30;;;;;;;;;;;;;;;9.17;100.00;99308.59;5011892;28;19936;-76
2023/10/29 20:34:15;;;;;;;;;;;;;;;9.20;100.00;99317.19;5022676;28;19975;-76
2023/10/29 20:37:10;;;;;;;;;;;;;;;9.22;100.00;99317.91;5004352;28;21300;-76
2023/10/29 20:40:16;;;;;;;;;;;;;;;9.27;100.00;99317.66;4970209;28;19953;-78
2023/10/29 20:43:02;;;;;;;;;;;;;;;9.30;100.00;99322.72;5011563;28;20020;-76
2023/10/29 20:45:51;;;;;;;;;;;;;;;9.32;100.00;99331.38;5026452;28;19935;-75
2023/10/29 20:48:37;;;;;;;;;;;;;;;9.33;100.00;99329.59;5049128;28;21248;-75
2023/10/29 20:51:23;;;;;;;;;;;;;;;9.33;100.00;99333.06;5030549;28;20461;-75
2023/10/29 20:54:09;;;;;;;;;;;;;;;9.34;100.00;99342.72;5049500;28;19928;-76
2023/10/29 20:56:55;;;;;;;;;;;;;;;9.36;100.00;99345.25;5047495;28;19960;-74
2023/10/29 20:59:40;;;;;;;;;;;;;;;9.37;100.00;99337.22;5049578;28;20659;-77
2023/10/29 21:02:26;;;;;;;;;;;;;;;9.38;100.00;99353.94;5048181;28;19937;-77
2023/10/29 21:05:15;;;;;;;;;;;;;;;9.40;100.00;99357.31;5028772;28;20351;-78
2023/10/29 21:08:00;;;;;;;;;;;;;;;9.38;100.00;99354.75;5045924;28;21577;-77
2023/10/29 21:10:46;;;;;;;;;;;;;;;9.38;100.00;99359.22;5035865;28;19971;-74
2023/10/29 21:13:32;;;;;;;;;;;;;;;9.39;100.00;99355.63;5046823;28;19924;-76
2023/10/29 21:16:21;;;;;;;;;;;;;;;9.40;100.00;99367.03;5049247;28;19962;-76
2023/10/29 21:19:07;;;;;;;;;;;;;;;9.40;100.00;99367.88;5028472;28;20459;-75
2023/10/29 21:21:52;;;;;;;;;;;;;;;9.38;100.00;99381.19;5051341;28;20330;-76
2023/10/29 21:24:40;;;;;;;;;;;;;;;9.37;100.00;99384.78;5050913;28;19929;-75
2023/10/29 21:27:26;;;;;;;;;;;;;;;9.37;100.00;99382.13;5054635;28;20041;-75
2023/10/29 21:30:14;;;;;;;;;;;;;;;9.38;100.00;99386.47;5055636;28;20406;-74
2023/10/29 21:33:04;;;;;;;;;;;;;;;9.39;100.00;99397.88;5049440;28;19928;-77
2023/10/29 21:35:50;;;;;;;;;;;;;;;9.41;100.00;99397.78;5039130;28;19939;-75
2023/10/29 21:38:36;;;;;;;;;;;;;;;9.40;100.00;99406.63;5049717;28;20545;-76
2023/10/29 21:41:26;;;;;;;;;;;;;;;9.37;100.00;99415.59;5038430;28;19924;-75
2023/10/29 21:44:22;;;;;;;;;;;;;;;9.34;100.00;99423.72;5047833;28;20330;-76
2023/10/29 21:47:07;;;;;;;;;;;;;;;9.29;100.00;99426.66;5049787;28;19928;-76
2023/10/29 21:49:53;;;;;;;;;;;;;;;9.26;100.00;99426.84;5035645;28;20276;-76
2023/10/29 21:52:41;;;;;;;;;;;;;;;9.22;100.00;99435.91;5052028;28;21366;-80
2023/10/29 21:55:28;;;;;;;;;;;;;;;9.20;100.00;99437.78;5053110;28;19936;-75
2023/10/29 21:58:35;;;;;;;;;;;;;;;9.18;100.00;99442.31;5001469;28;19941;-75
2023/10/29 22:01:23;;;;;;;;;;;;;;;9.16;100.00;99441.59;4987842;28;19944;-76
2023/10/29 22:04:30;;;;;;;;;;;;;;;9.12;100.00;99451.50;4980338;28;19925;-76
2023/10/29 22:07:32;;;;;;;;;;;;;;;9.10;100.00;99456.03;4982835;28;19935;-76
2023/10/29 22:10:20;;;;;;;;;;;;;;;9.10;100.00;99456.84;4972019;28;20001;-75
2023/10/29 22:13:06;;;;;;;;;;;;;;;9.09;100.00;99460.44;4976857;28;20694;-76
2023/10/29 22:15:52;;;;;;;;;;;;;;;9.07;100.00;99478.19;4984471;28;20016;-76
2023/10/29 22:18:38;;;;;;;;;;;;;;;9.07;100.00;99467.63;4972095;28;22087;-76
2023/10/29 22:21:23;;;;;;;;;;;;;;;9.08;100.00;99482.50;4968763;28;20628;-74
2023/10/29 22:24:18;;;;;;;;;;;;;;;9.13;100.00;99481.38;4983154;28;19941;-77
2023/10/29 22:27:04;;;;;;;;;;;;;;;9.17;100.00;99486.38;4971398;28;20554;-76
2023/10/29 22:29:49;;;;;;;;;;;;;;;9.21;100.00;99495.81;5015597;28;20372;-77
2023/10/29 22:32:35;;;;;;;;;;;;;;;9.21;100.00;99487.88;5033383;28;19931;-77
2023/10/29 22:35:21;;;;;;;;;;;;;;;9.19;100.00;99479.22;5032063;28;19963;-75
2023/10/29 22:38:43;;;;;;;;;;;;;;;9.15;100.00;99485.59;5006661;28;20384;-78
2023/10/29 22:41:32;;;;;;;;;;;;;;;9.10;100.00;99487.72;5005317;28;20651;-78
2023/10/29 22:44:18;;;;;;;;;;;;;;;9.05;100.00;99490.59;5010805;28;19925;-82
2023/10/29 22:47:09;;;;;;;;;;;;;;;9.04;100.00;99507.38;5023342;28;19960;-78
2023/10/29 22:50:13;;;;;;;;;;;;;;;9.04;100.00;99488.91;5012729;28;19921;-78
2023/10/29 22:52:59;;;;;;;;;;;;;;;9.03;100.00;99495.13;4999281;28;20395;-78
2023/10/29 22:55:44;;;;;;;;;;;;;;;9.01;100.00;99496.16;5009920;28;20351;-78
2023/10/29 22:58:30;;;;;;;;;;;;;;;8.97;100.00;99498.16;5014989;28;20274;-79
2023/10/29 23:01:16;;;;;;;;;;;;;;;8.95;100.00;99495.59;5006941;28;20164;-80
2023/10/29 23:04:02;;;;;;;;;;;;;;;8.94;100.00;99496.53;5030276;28;19929;-78
2023/10/29 23:06:57;;;;;;;;;;;;;;;8.95;100.00;99505.31;5021509;28;19970;-77
2023/10/29 23:10:12;;;;;;;;;;;;;;;8.93;100.00;99508.03;5015835;28;19925;-78
2023/10/29 23:12:58;;;;;;;;;;;;;;;8.93;100.00;99520.41;5027675;28;20456;-80
2023/10/29 23:15:44;;;;;;;;;;;;;;;8.90;100.00;99523.22;5042001;28;21410;-78
2023/10/29 23:18:29;;;;;;;;;;;;;;;8.87;100.00;99533.97;5043609;28;19928;-77
2023/10/29 23:21:15;;;;;;;;;;;;;;;8.87;100.00;99541.88;5038417;28;19935;-78
2023/10/29 23:24:03;;;;;;;;;;;;;;;8.85;100.00;99543.75;5050416;28;19951;-83